sensor_id;sensor_type;location;lat;lon;timestamp;pressure;altitude;pressure_sealevel;temperature;humidity
42289;BME280;30230;47.520;19.016;2023-05-07T00:00:58;99083.56;;;14.40;97.78
42289;BME280;30230;47.520;19.016;2023-05-07T00:02:59;99080.28;;;14.38;97.21
42289;BME280;30230;47.520;19.016;2023-05-07T00:05:01;99084.63;;;14.39;95.43
42289;BME280;30230;47.520;19.016;2023-05-07T00:07:02;99077.31;;;14.39;96.00
42289;BME280;30230;47.520;19.016;2023-05-07T00:09:02;99073.88;;;14.32;95.47
42289;BME280;30230;47.520;19.016;2023-05-07T00:11:04;99083.69;;;14.45;95.62
42289;BME280;30230;47.520;19.016;2023-05-07T00:13:04;99082.25;;;14.30;95.73
42289;BME280;30230;47.520;19.016;2023-05-07T00:15:06;99075.16;;;14.29;98.03
42289;BME280;30230;47.520;19.016;2023-05-07T00:17:06;99078.00;;;14.34;98.58
42289;BME280;30230;47.520;19.016;2023-05-07T00:19:07;99076.50;;;14.39;98.93
42289;BME280;30230;47.520;19.016;2023-05-07T00:21:07;99079.00;;;14.52;98.75
42289;BME280;30230;47.520;19.016;2023-05-07T00:23:08;99083.69;;;14.45;99.10
42289;BME280;30230;47.520;19.016;2023-05-07T00:25:09;99078.00;;;14.34;100.00
42289;BME280;30230;47.520;19.016;2023-05-07T00:27:10;99084.00;;;14.25;100.00
42289;BME280;30230;47.520;19.016;2023-05-07T00:29:11;99085.75;;;14.19;100.00
42289;BME280;30230;47.520;19.016;2023-05-07T00:31:11;99083.53;;;14.16;100.00
42289;BME280;30230;47.520;19.016;2023-05-07T00:33:11;99081.25;;;14.13;100.00
42289;BME280;30230;47.520;19.016;2023-05-07T00:35:12;99081.25;;;14.13;100.00
42289;BME280;30230;47.520;19.016;2023-05-07T00:37:12;99083.00;;;14.07;100.00
42289;BME280;30230;47.520;19.016;2023-05-07T00:39:13;99083.00;;;14.07;100.00
42289;BME280;30230;47.520;19.016;2023-05-07T00:41:13;99084.28;;;14.05;100.00
42289;BME280;30230;47.520;19.016;2023-05-07T00:43:14;99091.84;;;14.03;99.88
42289;BME280;30230;47.520;19.016;2023-05-07T00:45:16;99088.81;;;14.11;98.90
42289;BME280;30230;47.520;19.016;2023-05-07T00:47:17;99095.97;;;14.05;97.82
42289;BME280;30230;47.520;19.016;2023-05-07T00:49:17;99090.53;;;14.05;98.45
42289;BME280;30230;47.520;19.016;2023-05-07T00:51:18;99098.69;;;14.05;98.70
42289;BME280;30230;47.520;19.016;2023-05-07T00:53:19;99093.50;;;14.04;98.53
42289;BME280;30230;47.520;19.016;2023-05-07T00:55:20;99095.16;;;14.05;99.69
42289;BME280;30230;47.520;19.016;2023-05-07T00:57:20;99097.28;;;14.03;100.00
42289;BME280;30230;47.520;19.016;2023-05-07T00:59:22;99087.94;;;13.99;100.00
42289;BME280;30230;47.520;19.016;2023-05-07T01:01:22;99088.75;;;13.99;100.00
42289;BME280;30230;47.520;19.016;2023-05-07T01:03:22;99089.38;;;14.01;100.00
42289;BME280;30230;47.520;19.016;2023-05-07T01:05:23;99083.94;;;14.01;100.00
42289;BME280;30230;47.520;19.016;2023-05-07T01:07:25;99087.94;;;13.99;100.00
42289;BME280;30230;47.520;19.016;2023-05-07T01:09:26;99089.13;;;14.03;100.00
42289;BME280;30230;47.520;19.016;2023-05-07T01:11:27;99083.59;;;14.10;100.00
42289;BME280;30230;47.520;19.016;2023-05-07T01:13:28;99088.22;;;14.09;100.00
42289;BME280;30230;47.520;19.016;2023-05-07T01:15:29;99090.34;;;14.07;100.00
42289;BME280;30230;47.520;19.016;2023-05-07T01:17:33;99102.25;;;14.06;100.00
42289;BME280;30230;47.520;19.016;2023-05-07T01:19:34;99100.25;;;14.01;100.00
42289;BME280;30230;47.520;19.016;2023-05-07T01:21:36;99100.00;;;14.03;100.00
42289;BME280;30230;47.520;19.016;2023-05-07T01:23:38;99103.69;;;14.08;100.00
42289;BME280;30230;47.520;19.016;2023-05-07T01:25:39;99103.63;;;13.97;100.00
42289;BME280;30230;47.520;19.016;2023-05-07T01:27:40;99105.59;;;13.90;100.00
42289;BME280;30230;47.520;19.016;2023-05-07T01:29:40;99109.47;;;13.82;100.00
42289;BME280;30230;47.520;19.016;2023-05-07T01:31:41;99111.44;;;13.75;100.00
42289;BME280;30230;47.520;19.016;2023-05-07T01:33:44;99105.88;;;13.70;100.00
42289;BME280;30230;47.520;19.016;2023-05-07T01:35:48;99102.53;;;13.68;100.00
42289;BME280;30230;47.520;19.016;2023-05-07T01:37:50;99100.50;;;13.63;100.00
42289;BME280;30230;47.520;19.016;2023-05-07T01:39:52;99102.63;;;13.61;100.00
42289;BME280;30230;47.520;19.016;2023-05-07T01:41:56;99100.75;;;13.62;100.00
42289;BME280;30230;47.520;19.016;2023-05-07T01:43:57;99096.56;;;13.59;100.00
42289;BME280;30230;47.520;19.016;2023-05-07T01:45:58;99093.72;;;13.54;100.00
42289;BME280;30230;47.520;19.016;2023-05-07T01:48:01;99099.38;;;13.52;100.00
42289;BME280;30230;47.520;19.016;2023-05-07T01:50:02;99096.28;;;13.49;100.00
42289;BME280;30230;47.520;19.016;2023-05-07T01:52:03;99091.56;;;13.44;100.00
42289;BME280;30230;47.520;19.016;2023-05-07T01:54:04;99092.81;;;13.42;100.00
42289;BME280;30230;47.520;19.016;2023-05-07T01:56:05;99081.44;;;13.33;100.00
42289;BME280;30230;47.520;19.016;2023-05-07T01:58:06;99088.47;;;13.41;100.00
42289;BME280;30230;47.520;19.016;2023-05-07T02:00:07;99082.88;;;13.36;100.00
42289;BME280;30230;47.520;19.016;2023-05-07T02:02:09;99076.47;;;13.30;100.00
42289;BME280;30230;47.520;19.016;2023-05-07T02:04:09;99079.44;;;13.28;100.00
42289;BME280;30230;47.520;19.016;2023-05-07T02:06:09;99085.88;;;13.27;100.00
42289;BME280;30230;47.520;19.016;2023-05-07T02:08:10;99079.69;;;13.20;100.00
42289;BME280;30230;47.520;19.016;2023-05-07T02:10:10;99080.94;;;13.24;100.00
42289;BME280;30230;47.520;19.016;2023-05-07T02:12:11;99080.84;;;13.31;100.00
42289;BME280;30230;47.520;19.016;2023-05-07T02:14:11;99084.84;;;13.28;100.00
42289;BME280;30230;47.520;19.016;2023-05-07T02:16:11;99083.66;;;13.24;100.00
42289;BME280;30230;47.520;19.016;2023-05-07T02:18:15;99082.81;;;13.24;100.00
42289;BME280;30230;47.520;19.016;2023-05-07T02:20:15;99083.31;;;13.14;100.00
42289;BME280;30230;47.520;19.016;2023-05-07T02:22:16;99082.31;;;13.09;100.00
42289;BME280;30230;47.520;19.016;2023-05-07T02:24:16;99077.72;;;13.09;100.00
42289;BME280;30230;47.520;19.016;2023-05-07T02:26:18;99072.97;;;13.04;100.00
42289;BME280;30230;47.520;19.016;2023-05-07T02:28:18;99074.53;;;13.12;100.00
42289;BME280;30230;47.520;19.016;2023-05-07T02:30:18;99074.53;;;13.12;100.00
42289;BME280;30230;47.520;19.016;2023-05-07T02:32:21;99074.53;;;13.12;100.00
42289;BME280;30230;47.520;19.016;2023-05-07T02:34:23;99068.09;;;13.13;100.00
42289;BME280;30230;47.520;19.016;2023-05-07T02:36:23;99072.88;;;13.11;100.00
42289;BME280;30230;47.520;19.016;2023-05-07T02:38:24;99072.44;;;13.14;100.00
42289;BME280;30230;47.520;19.016;2023-05-07T02:40:24;99068.25;;;13.18;100.00
42289;BME280;30230;47.520;19.016;2023-05-07T02:42:25;99058.28;;;13.12;100.00
42289;BME280;30230;47.520;19.016;2023-05-07T02:44:25;99069.50;;;13.16;100.00
42289;BME280;30230;47.520;19.016;2023-05-07T02:46:25;99076.44;;;13.12;100.00
42289;BME280;30230;47.520;19.016;2023-05-07T02:48:26;99072.44;;;13.14;100.00
42289;BME280;30230;47.520;19.016;2023-05-07T02:50:26;99075.66;;;13.29;100.00
42289;BME280;30230;47.520;19.016;2023-05-07T02:52:27;99078.56;;;13.28;100.00
42289;BME280;30230;47.520;19.016;2023-05-07T02:54:27;99081.41;;;13.15;100.00
42289;BME280;30230;47.520;19.016;2023-05-07T02:56:27;99073.63;;;13.00;100.00
42289;BME280;30230;47.520;19.016;2023-05-07T02:58:28;99082.59;;;13.00;100.00
42289;BME280;30230;47.520;19.016;2023-05-07T03:00:29;99077.25;;;12.94;100.00
42289;BME280;30230;47.520;19.016;2023-05-07T03:02:29;99080.41;;;12.91;100.00
42289;BME280;30230;47.520;19.016;2023-05-07T03:04:29;99082.28;;;12.90;100.00
42289;BME280;30230;47.520;19.016;2023-05-07T03:06:30;99082.50;;;12.89;100.00
42289;BME280;30230;47.520;19.016;2023-05-07T03:08:30;99080.84;;;12.88;100.00
42289;BME280;30230;47.520;19.016;2023-05-07T03:10:31;99075.44;;;12.88;100.00
42289;BME280;30230;47.520;19.016;2023-05-07T03:12:31;99078.75;;;12.90;100.00
42289;BME280;30230;47.520;19.016;2023-05-07T03:14:32;99082.91;;;12.92;100.00
42289;BME280;30230;47.520;19.016;2023-05-07T03:16:32;99073.97;;;12.85;100.00
42289;BME280;30230;47.520;19.016;2023-05-07T03:18:32;99076.47;;;12.87;100.00
42289;BME280;30230;47.520;19.016;2023-05-07T03:20:33;99075.72;;;12.80;100.00
42289;BME280;30230;47.520;19.016;2023-05-07T03:22:33;99073.59;;;12.82;100.00
42289;BME280;30230;47.520;19.016;2023-05-07T03:24:34;99078.19;;;12.81;100.00
42289;BME280;30230;47.520;19.016;2023-05-07T03:26:34;99080.47;;;12.84;100.00
42289;BME280;30230;47.520;19.016;2023-05-07T03:28:34;99078.59;;;12.85;100.00
42289;BME280;30230;47.520;19.016;2023-05-07T03:30:35;99087.53;;;12.85;100.00
42289;BME280;30230;47.520;19.016;2023-05-07T03:32:36;99072.75;;;12.81;100.00
42289;BME280;30230;47.520;19.016;2023-05-07T03:34:36;99088.81;;;12.83;100.00
42289;BME280;30230;47.520;19.016;2023-05-07T03:36:36;99083.59;;;12.81;100.00
42289;BME280;30230;47.520;19.016;2023-05-07T03:38:37;99084.22;;;12.83;100.00
42289;BME280;30230;47.520;19.016;2023-05-07T03:40:37;99082.75;;;12.87;100.00
42289;BME280;30230;47.520;19.016;2023-05-07T03:42:38;99085.81;;;12.91;100.00
42289;BME280;30230;47.520;19.016;2023-05-07T03:44:38;99079.81;;;12.89;100.00
42289;BME280;30230;47.520;19.016;2023-05-07T03:46:38;99084.16;;;12.90;100.00
42289;BME280;30230;47.520;19.016;2023-05-07T03:48:39;99081.84;;;12.93;100.00
42289;BME280;30230;47.520;19.016;2023-05-07T03:50:39;99078.31;;;12.93;100.00
42289;BME280;30230;47.520;19.016;2023-05-07T03:52:40;99083.25;;;12.96;100.00
42289;BME280;30230;47.520;19.016;2023-05-07T03:54:40;99085.78;;;12.97;100.00
42289;BME280;30230;47.520;19.016;2023-05-07T03:56:41;99077.47;;;12.92;100.00
42289;BME280;30230;47.520;19.016;2023-05-07T03:58:41;99087.88;;;12.95;100.00
42289;BME280;30230;47.520;19.016;2023-05-07T04:00:42;99093.06;;;12.97;100.00
42289;BME280;30230;47.520;19.016;2023-05-07T04:02:42;99088.91;;;12.94;100.00
42289;BME280;30230;47.520;19.016;2023-05-07T04:04:42;99091.03;;;12.92;100.00
42289;BME280;30230;47.520;19.016;2023-05-07T04:06:43;99077.53;;;12.86;100.00
42289;BME280;30230;47.520;19.016;2023-05-07T04:08:43;99091.69;;;12.88;100.00
42289;BME280;30230;47.520;19.016;2023-05-07T04:10:43;99080.63;;;12.89;100.00
42289;BME280;30230;47.520;19.016;2023-05-07T04:12:44;99088.09;;;12.94;100.00
42289;BME280;30230;47.520;19.016;2023-05-07T04:14:44;99091.19;;;12.97;100.00
42289;BME280;30230;47.520;19.016;2023-05-07T04:16:45;99098.28;;;12.98;100.00
42289;BME280;30230;47.520;19.016;2023-05-07T04:18:45;99093.69;;;12.99;100.00
42289;BME280;30230;47.520;19.016;2023-05-07T04:20:46;99087.28;;;12.93;100.00
42289;BME280;30230;47.520;19.016;2023-05-07T04:22:46;99093.91;;;12.97;100.00
42289;BME280;30230;47.520;19.016;2023-05-07T04:24:46;99103.63;;;13.05;100.00
42289;BME280;30230;47.520;19.016;2023-05-07T04:26:47;99109.19;;;13.10;100.00
42289;BME280;30230;47.520;19.016;2023-05-07T04:28:47;99106.94;;;13.07;100.00
42289;BME280;30230;47.520;19.016;2023-05-07T04:30:48;99105.28;;;13.06;100.00
42289;BME280;30230;47.520;19.016;2023-05-07T04:32:48;99106.72;;;13.09;100.00
42289;BME280;30230;47.520;19.016;2023-05-07T04:34:48;99104.22;;;13.07;100.00
42289;BME280;30230;47.520;19.016;2023-05-07T04:36:49;99112.50;;;13.12;100.00
42289;BME280;30230;47.520;19.016;2023-05-07T04:38:49;99107.47;;;13.16;100.00
42289;BME280;30230;47.520;19.016;2023-05-07T04:40:50;99106.16;;;13.25;100.00
42289;BME280;30230;47.520;19.016;2023-05-07T04:42:51;99106.75;;;13.27;100.00
42289;BME280;30230;47.520;19.016;2023-05-07T04:44:53;99112.28;;;13.39;100.00
42289;BME280;30230;47.520;19.016;2023-05-07T04:46:54;99107.59;;;13.46;100.00
42289;BME280;30230;47.520;19.016;2023-05-07T04:48:54;99108.34;;;13.53;100.00
42289;BME280;30230;47.520;19.016;2023-05-07T04:50:55;99116.63;;;13.58;100.00
42289;BME280;30230;47.520;19.016;2023-05-07T04:52:55;99119.44;;;13.70;100.00
42289;BME280;30230;47.520;19.016;2023-05-07T04:54:55;99120.56;;;13.80;100.00
42289;BME280;30230;47.520;19.016;2023-05-07T04:56:56;99111.41;;;13.93;100.00
42289;BME280;30230;47.520;19.016;2023-05-07T04:58:56;99114.84;;;14.00;100.00
42289;BME280;30230;47.520;19.016;2023-05-07T05:00:58;99116.44;;;14.08;100.00
42289;BME280;30230;47.520;19.016;2023-05-07T05:02:58;99101.19;;;14.07;100.00
42289;BME280;30230;47.520;19.016;2023-05-07T05:04:58;99111.88;;;14.20;100.00
42289;BME280;30230;47.520;19.016;2023-05-07T05:07:00;99102.88;;;14.20;100.00
42289;BME280;30230;47.520;19.016;2023-05-07T05:09:00;99120.91;;;14.32;100.00
42289;BME280;30230;47.520;19.016;2023-05-07T05:11:01;99124.34;;;14.40;100.00
42289;BME280;30230;47.520;19.016;2023-05-07T05:13:02;99114.66;;;14.44;100.00
42289;BME280;30230;47.520;19.016;2023-05-07T05:15:03;99121.66;;;14.51;100.00
42289;BME280;30230;47.520;19.016;2023-05-07T05:17:04;99124.06;;;14.59;100.00
42289;BME280;30230;47.520;19.016;2023-05-07T05:19:05;99121.59;;;14.70;100.00
42289;BME280;30230;47.520;19.016;2023-05-07T05:21:05;99121.72;;;14.75;100.00
42289;BME280;30230;47.520;19.016;2023-05-07T05:23:07;99123.25;;;14.82;100.00
42289;BME280;30230;47.520;19.016;2023-05-07T05:25:08;99126.72;;;14.90;100.00
42289;BME280;30230;47.520;19.016;2023-05-07T05:27:08;99121.16;;;14.96;100.00
42289;BME280;30230;47.520;19.016;2023-05-07T05:29:09;99120.34;;;15.07;100.00
42289;BME280;30230;47.520;19.016;2023-05-07T05:31:10;99125.06;;;15.12;100.00
42289;BME280;30230;47.520;19.016;2023-05-07T05:33:10;99122.94;;;15.14;100.00
42289;BME280;30230;47.520;19.016;2023-05-07T05:35:11;99128.84;;;15.23;100.00
42289;BME280;30230;47.520;19.016;2023-05-07T05:37:11;99128.03;;;15.22;100.00
42289;BME280;30230;47.520;19.016;2023-05-07T05:39:11;99124.00;;;15.13;100.00
42289;BME280;30230;47.520;19.016;2023-05-07T05:41:12;99119.03;;;15.10;100.00
42289;BME280;30230;47.520;19.016;2023-05-07T05:43:14;99119.50;;;15.07;100.00
42289;BME280;30230;47.520;19.016;2023-05-07T05:45:14;99125.19;;;15.05;100.00
42289;BME280;30230;47.520;19.016;2023-05-07T05:47:15;99121.38;;;15.18;100.00
42289;BME280;30230;47.520;19.016;2023-05-07T05:49:15;99117.47;;;15.14;100.00
42289;BME280;30230;47.520;19.016;2023-05-07T05:51:15;99116.19;;;15.17;100.00
42289;BME280;30230;47.520;19.016;2023-05-07T05:53:16;99116.56;;;15.20;100.00
42289;BME280;30230;47.520;19.016;2023-05-07T05:55:16;99122.69;;;15.27;100.00
42289;BME280;30230;47.520;19.016;2023-05-07T05:57:17;99128.84;;;15.34;100.00
42289;BME280;30230;47.520;19.016;2023-05-07T05:59:17;99121.28;;;15.36;100.00
42289;BME280;30230;47.520;19.016;2023-05-07T06:01:18;99122.22;;;15.42;100.00
42289;BME280;30230;47.520;19.016;2023-05-07T06:03:19;99114.97;;;15.48;100.00
42289;BME280;30230;47.520;19.016;2023-05-07T06:05:19;99123.25;;;15.53;100.00
42289;BME280;30230;47.520;19.016;2023-05-07T06:07:19;99099.72;;;15.47;100.00
42289;BME280;30230;47.520;19.016;2023-05-07T06:09:20;99117.69;;;15.71;100.00
42289;BME280;30230;47.520;19.016;2023-05-07T06:11:20;99117.22;;;15.74;100.00
42289;BME280;30230;47.520;19.016;2023-05-07T06:13:21;99117.31;;;15.79;100.00
42289;BME280;30230;47.520;19.016;2023-05-07T06:15:22;99122.13;;;15.89;100.00
42289;BME280;30230;47.520;19.016;2023-05-07T06:17:23;99120.59;;;15.93;100.00
42289;BME280;30230;47.520;19.016;2023-05-07T06:19:23;99131.09;;;16.01;99.20
42289;BME280;30230;47.520;19.016;2023-05-07T06:21:24;99118.91;;;16.04;98.35
42289;BME280;30230;47.520;19.016;2023-05-07T06:23:24;99126.19;;;16.15;97.86
42289;BME280;30230;47.520;19.016;2023-05-07T06:25:25;99129.31;;;16.35;97.65
42289;BME280;30230;47.520;19.016;2023-05-07T06:27:25;99129.88;;;16.37;97.15
42289;BME280;30230;47.520;19.016;2023-05-07T06:29:26;99130.56;;;16.45;96.88
42289;BME280;30230;47.520;19.016;2023-05-07T06:31:30;99127.19;;;16.54;95.64
42289;BME280;30230;47.520;19.016;2023-05-07T06:33:32;99121.59;;;16.61;94.34
42289;BME280;30230;47.520;19.016;2023-05-07T06:35:32;99129.59;;;16.67;93.18
42289;BME280;30230;47.520;19.016;2023-05-07T06:37:32;99126.25;;;16.77;93.07
42289;BME280;30230;47.520;19.016;2023-05-07T06:39:33;99131.78;;;16.99;93.43
42289;BME280;30230;47.520;19.016;2023-05-07T06:41:33;99129.72;;;17.06;94.19
42289;BME280;30230;47.520;19.016;2023-05-07T06:43:35;99125.25;;;17.17;93.55
42289;BME280;30230;47.520;19.016;2023-05-07T06:45:35;99127.63;;;17.30;93.64
42289;BME280;30230;47.520;19.016;2023-05-07T06:47:36;99127.91;;;17.51;93.67
42289;BME280;30230;47.520;19.016;2023-05-07T06:49:36;99124.97;;;17.57;92.12
42289;BME280;30230;47.520;19.016;2023-05-07T06:51:37;99129.69;;;17.62;91.96
42289;BME280;30230;47.520;19.016;2023-05-07T06:53:37;99124.28;;;17.67;92.12
42289;BME280;30230;47.520;19.016;2023-05-07T06:55:38;99136.47;;;17.76;93.30
42289;BME280;30230;47.520;19.016;2023-05-07T06:57:38;99131.19;;;17.91;91.72
42289;BME280;30230;47.520;19.016;2023-05-07T06:59:38;99131.88;;;18.04;90.43
42289;BME280;30230;47.520;19.016;2023-05-07T07:01:39;99134.16;;;18.12;89.71
42289;BME280;30230;47.520;19.016;2023-05-07T07:03:40;99130.16;;;18.19;86.00
42289;BME280;30230;47.520;19.016;2023-05-07T07:05:41;99140.25;;;18.19;87.19
42289;BME280;30230;47.520;19.016;2023-05-07T07:07:42;99129.44;;;18.29;86.95
42289;BME280;30230;47.520;19.016;2023-05-07T07:09:42;99131.34;;;18.29;87.16
42289;BME280;30230;47.520;19.016;2023-05-07T07:11:42;99134.88;;;18.51;84.47
42289;BME280;30230;47.520;19.016;2023-05-07T07:13:43;99142.31;;;18.56;87.79
42289;BME280;30230;47.520;19.016;2023-05-07T07:15:43;99139.56;;;18.56;88.32
42289;BME280;30230;47.520;19.016;2023-05-07T07:17:44;99144.88;;;18.40;84.78
42289;BME280;30230;47.520;19.016;2023-05-07T07:19:45;99148.34;;;18.31;83.66
42289;BME280;30230;47.520;19.016;2023-05-07T07:21:45;99146.09;;;18.28;83.23
42289;BME280;30230;47.520;19.016;2023-05-07T07:23:45;99151.72;;;18.16;81.51
42289;BME280;30230;47.520;19.016;2023-05-07T07:25:46;99147.19;;;18.27;81.48
42289;BME280;30230;47.520;19.016;2023-05-07T07:27:46;99146.75;;;18.40;81.57
42289;BME280;30230;47.520;19.016;2023-05-07T07:29:47;99166.19;;;18.38;82.43
42289;BME280;30230;47.520;19.016;2023-05-07T07:31:48;99161.34;;;18.45;81.04
42289;BME280;30230;47.520;19.016;2023-05-07T07:33:50;99158.78;;;18.61;80.28
42289;BME280;30230;47.520;19.016;2023-05-07T07:35:50;99164.03;;;18.94;80.42
42289;BME280;30230;47.520;19.016;2023-05-07T07:37:50;99155.78;;;19.26;76.90
42289;BME280;30230;47.520;19.016;2023-05-07T07:39:51;99159.88;;;19.61;75.31
42289;BME280;30230;47.520;19.016;2023-05-07T07:41:51;99164.47;;;20.03;74.47
42289;BME280;30230;47.520;19.016;2023-05-07T07:43:52;99170.50;;;20.10;68.95
42289;BME280;30230;47.520;19.016;2023-05-07T07:45:52;99168.88;;;20.09;69.28
42289;BME280;30230;47.520;19.016;2023-05-07T07:47:52;99174.66;;;20.13;67.66
42289;BME280;30230;47.520;19.016;2023-05-07T07:49:53;99176.84;;;20.16;69.57
42289;BME280;30230;47.520;19.016;2023-05-07T07:51:53;99176.84;;;20.21;72.54
42289;BME280;30230;47.520;19.016;2023-05-07T07:53:54;99178.78;;;20.20;71.70
42289;BME280;30230;47.520;19.016;2023-05-07T07:55:54;99171.03;;;20.02;68.59
42289;BME280;30230;47.520;19.016;2023-05-07T07:57:54;99165.44;;;19.76;67.18
42289;BME280;30230;47.520;19.016;2023-05-07T07:59:55;99167.00;;;19.62;70.14
42289;BME280;30230;47.520;19.016;2023-05-07T08:01:55;99170.69;;;19.46;71.87
42289;BME280;30230;47.520;19.016;2023-05-07T08:03:57;99170.84;;;19.24;72.03
42289;BME280;30230;47.520;19.016;2023-05-07T08:06:00;99181.75;;;19.19;73.00
42289;BME280;30230;47.520;19.016;2023-05-07T08:08:00;99168.00;;;19.14;71.55
42289;BME280;30230;47.520;19.016;2023-05-07T08:10:01;99177.25;;;19.03;74.33
42289;BME280;30230;47.520;19.016;2023-05-07T08:12:02;99174.97;;;18.94;72.24
42289;BME280;30230;47.520;19.016;2023-05-07T08:14:03;99177.44;;;18.96;70.62
42289;BME280;30230;47.520;19.016;2023-05-07T08:16:04;99177.19;;;18.97;73.29
42289;BME280;30230;47.520;19.016;2023-05-07T08:18:04;99168.34;;;18.90;70.89
42289;BME280;30230;47.520;19.016;2023-05-07T08:20:05;99165.88;;;18.89;74.86
42289;BME280;30230;47.520;19.016;2023-05-07T08:22:06;99173.31;;;18.93;76.54
42289;BME280;30230;47.520;19.016;2023-05-07T08:24:07;99168.13;;;18.92;73.25
42289;BME280;30230;47.520;19.016;2023-05-07T08:26:08;99158.81;;;18.93;75.30
42289;BME280;30230;47.520;19.016;2023-05-07T08:28:08;99155.75;;;18.89;77.72
42289;BME280;30230;47.520;19.016;2023-05-07T08:30:09;99162.28;;;18.83;78.20
42289;BME280;30230;47.520;19.016;2023-05-07T08:32:09;99162.22;;;18.78;79.66
42289;BME280;30230;47.520;19.016;2023-05-07T08:34:10;99157.84;;;18.77;80.73
42289;BME280;30230;47.520;19.016;2023-05-07T08:36:10;99160.00;;;18.75;79.50
42289;BME280;30230;47.520;19.016;2023-05-07T08:38:11;99162.75;;;18.75;78.43
42289;BME280;30230;47.520;19.016;2023-05-07T08:40:11;99165.75;;;18.73;75.08
42289;BME280;30230;47.520;19.016;2023-05-07T08:42:12;99165.56;;;18.85;73.66
42289;BME280;30230;47.520;19.016;2023-05-07T08:44:16;99167.94;;;19.04;72.35
42289;BME280;30230;47.520;19.016;2023-05-07T08:46:20;99169.25;;;19.70;71.22
42289;BME280;30230;47.520;19.016;2023-05-07T08:48:22;99165.69;;;19.70;72.16
42289;BME280;30230;47.520;19.016;2023-05-07T08:50:25;99164.28;;;19.67;69.27
42289;BME280;30230;47.520;19.016;2023-05-07T08:52:26;99173.38;;;19.78;69.01
42289;BME280;30230;47.520;19.016;2023-05-07T08:54:27;99164.38;;;19.83;69.71
42289;BME280;30230;47.520;19.016;2023-05-07T08:56:29;99172.88;;;19.81;70.83
42289;BME280;30230;47.520;19.016;2023-05-07T08:58:30;99167.91;;;19.78;70.87
42289;BME280;30230;47.520;19.016;2023-05-07T09:00:30;99166.81;;;19.79;71.17
42289;BME280;30230;47.520;19.016;2023-05-07T09:02:30;99171.50;;;19.84;70.24
42289;BME280;30230;47.520;19.016;2023-05-07T09:04:31;99166.84;;;19.89;66.92
42289;BME280;30230;47.520;19.016;2023-05-07T09:06:32;99165.16;;;19.78;65.75
42289;BME280;30230;47.520;19.016;2023-05-07T09:08:33;99171.78;;;19.87;67.53
42289;BME280;30230;47.520;19.016;2023-05-07T09:10:34;99172.38;;;19.94;69.16
42289;BME280;30230;47.520;19.016;2023-05-07T09:12:34;99171.63;;;20.14;68.41
42289;BME280;30230;47.520;19.016;2023-05-07T09:14:39;99169.25;;;20.43;65.66
42289;BME280;30230;47.520;19.016;2023-05-07T09:16:39;99167.66;;;20.47;63.57
42289;BME280;30230;47.520;19.016;2023-05-07T09:18:41;99174.78;;;20.48;65.98
42289;BME280;30230;47.520;19.016;2023-05-07T09:20:42;99162.44;;;20.51;65.99
42289;BME280;30230;47.520;19.016;2023-05-07T09:22:42;99165.41;;;20.44;65.87
42289;BME280;30230;47.520;19.016;2023-05-07T09:24:48;99167.13;;;20.66;64.99
42289;BME280;30230;47.520;19.016;2023-05-07T09:26:52;99162.44;;;20.51;66.18
42289;BME280;30230;47.520;19.016;2023-05-07T09:28:52;99169.09;;;20.80;62.93
42289;BME280;30230;47.520;19.016;2023-05-07T09:30:55;99160.03;;;21.46;63.46
42289;BME280;30230;47.520;19.016;2023-05-07T09:32:57;99177.63;;;21.10;62.62
42289;BME280;30230;47.520;19.016;2023-05-07T09:34:58;99177.03;;;20.87;62.45
42289;BME280;30230;47.520;19.016;2023-05-07T09:37:00;99168.78;;;20.67;63.01
42289;BME280;30230;47.520;19.016;2023-05-07T09:39:01;99158.88;;;20.50;64.05
42289;BME280;30230;47.520;19.016;2023-05-07T09:41:06;99161.31;;;20.42;64.06
42289;BME280;30230;47.520;19.016;2023-05-07T09:43:11;99162.66;;;20.39;67.21
42289;BME280;30230;47.520;19.016;2023-05-07T09:45:12;99157.13;;;20.24;70.10
42289;BME280;30230;47.520;19.016;2023-05-07T09:47:20;99172.22;;;20.21;70.92
42289;BME280;30230;47.520;19.016;2023-05-07T09:49:23;99164.75;;;20.07;69.64
42289;BME280;30230;47.520;19.016;2023-05-07T09:51:29;99170.72;;;19.93;68.32
42289;BME280;30230;47.520;19.016;2023-05-07T09:53:30;99163.84;;;19.86;69.85
42289;BME280;30230;47.520;19.016;2023-05-07T09:55:31;99164.06;;;19.79;69.09
42289;BME280;30230;47.520;19.016;2023-05-07T09:57:32;99171.75;;;19.77;69.73
42289;BME280;30230;47.520;19.016;2023-05-07T09:59:34;99165.19;;;19.83;70.39
42289;BME280;30230;47.520;19.016;2023-05-07T10:01:36;99169.53;;;19.79;70.17
42289;BME280;30230;47.520;19.016;2023-05-07T10:03:37;99174.72;;;19.70;69.94
42289;BME280;30230;47.520;19.016;2023-05-07T10:05:40;99162.91;;;19.65;69.78
42289;BME280;30230;47.520;19.016;2023-05-07T10:07:41;99165.91;;;19.63;72.04
42289;BME280;30230;47.520;19.016;2023-05-07T10:09:42;99170.75;;;19.56;73.74
42289;BME280;30230;47.520;19.016;2023-05-07T10:11:44;99169.09;;;19.50;70.84
42289;BME280;30230;47.520;19.016;2023-05-07T10:13:46;99169.88;;;19.45;71.94
42289;BME280;30230;47.520;19.016;2023-05-07T10:15:47;99170.34;;;19.37;67.54
42289;BME280;30230;47.520;19.016;2023-05-07T10:17:48;99166.53;;;19.33;66.87
42289;BME280;30230;47.520;19.016;2023-05-07T10:19:49;99169.00;;;19.35;66.57
42289;BME280;30230;47.520;19.016;2023-05-07T10:21:55;99168.44;;;19.38;70.87
42289;BME280;30230;47.520;19.016;2023-05-07T10:24:04;99163.28;;;19.41;72.79
42289;BME280;30230;47.520;19.016;2023-05-07T10:26:09;99160.56;;;19.46;72.28
42289;BME280;30230;47.520;19.016;2023-05-07T10:28:10;99162.53;;;19.51;72.68